createdAt,value
2022-09-28T00:01:22.113Z,98468.16
2022-09-28T00:04:08.398Z,98462.25
2022-09-28T00:06:54.159Z,98457.94
2022-09-28T00:09:40.556Z,98444.38
2022-09-28T00:12:26.364Z,98444.38
2022-09-28T00:15:12.630Z,98447.19
2022-09-28T00:17:58.561Z,98448.72
2022-09-28T00:20:44.800Z,98436.38
2022-09-28T00:23:30.643Z,98446.00
2022-09-28T00:26:17.130Z,98442.56
2022-09-28T00:29:03.065Z,98444.78
2022-09-28T00:31:52.295Z,98446.81
2022-09-28T00:34:40.673Z,98448.03
2022-09-28T00:37:27.032Z,98444.97
2022-09-28T00:40:12.929Z,98453.03
2022-09-28T00:42:58.919Z,98450.34
2022-09-28T00:45:44.892Z,98448.66
2022-09-28T00:48:32.637Z,98447.41
2022-09-28T00:51:19.264Z,98458.06
2022-09-28T00:54:05.332Z,98449.56
2022-09-28T00:56:50.847Z,98444.34
2022-09-28T00:59:37.305Z,98442.66
2022-09-28T01:02:23.087Z,98443.97
2022-09-28T01:05:10.350Z,98462.22
2022-09-28T01:07:56.547Z,98455.34
2022-09-28T01:10:45.875Z,98449.88
2022-09-28T01:13:31.689Z,98449.31
2022-09-28T01:16:18.101Z,98458.25
2022-09-28T01:19:44.280Z,98449.62
2022-09-28T01:22:49.158Z,98460.34
2022-09-28T01:25:53.953Z,98456.50
2022-09-28T01:28:40.377Z,98463.06
2022-09-28T01:31:27.219Z,98464.41
2022-09-28T01:34:34.197Z,98465.53
2022-09-28T01:37:20.366Z,98467.25
2022-09-28T01:40:06.612Z,98466.25
2022-09-28T01:43:12.769Z,98472.66
2022-09-28T01:46:00.648Z,98472.25
2022-09-28T01:49:09.835Z,98477.97
2022-09-28T01:52:02.041Z,98482.66
2022-09-28T01:54:48.026Z,98474.75
2022-09-28T01:57:44.816Z,98477.50
2022-09-28T02:00:30.745Z,98479.34
2022-09-28T02:03:18.543Z,98469.75
2022-09-28T02:06:06.574Z,98480.72
2022-09-28T02:08:57.419Z,98468.84
2022-09-28T02:11:45.685Z,98470.66
2022-09-28T02:14:32.015Z,98477.88
2022-09-28T02:17:19.345Z,98476.09
2022-09-28T02:20:06.011Z,98476.19
2022-09-28T02:22:52.454Z,98474.56
2022-09-28T02:25:41.055Z,98478.81
2022-09-28T02:28:27.298Z,98475.91
2022-09-28T02:31:13.804Z,98471.53
2022-09-28T02:33:59.512Z,98472.81
2022-09-28T02:36:46.467Z,98479.66
2022-09-28T02:39:32.230Z,98483.84
2022-09-28T02:42:28.816Z,98481.75
2022-09-28T02:45:21.699Z,98474.41
2022-09-28T02:48:42.723Z,98484.87
2022-09-28T02:51:32.917Z,98475.59
2022-09-28T02:54:31.411Z,98483.41
2022-09-28T02:57:17.530Z,98488.56
2022-09-28T03:00:10.373Z,98500.34
2022-09-28T03:02:59.341Z,98496.97
2022-09-28T03:06:00.424Z,98509.38
2022-09-28T03:08:54.894Z,98510.13
2022-09-28T03:11:43.895Z,98525.88
2022-09-28T03:14:30.037Z,98521.75
2022-09-28T03:17:16.312Z,98520.72
2022-09-28T03:20:02.604Z,98511.03
2022-09-28T03:23:12.312Z,98532.31
2022-09-28T03:25:55.039Z,98528.44
2022-09-28T03:28:41.600Z,98525.72
2022-09-28T03:31:28.093Z,98522.03
2022-09-28T03:34:14.438Z,98523.41
2022-09-28T03:37:01.313Z,98521.31
2022-09-28T03:39:47.936Z,98519.25
2022-09-28T03:42:35.569Z,98523.63
2022-09-28T03:45:21.574Z,98522.63
2022-09-28T03:48:08.099Z,98528.84
2022-09-28T03:50:58.020Z,98532.22
2022-09-28T03:53:44.176Z,98537.00
2022-09-28T03:56:30.610Z,98541.41
2022-09-28T03:59:16.661Z,98528.78
2022-09-28T04:02:04.572Z,98528.13
2022-09-28T04:04:50.820Z,98521.50
2022-09-28T04:07:36.910Z,98524.94
2022-09-28T04:10:23.236Z,98514.59
2022-09-28T04:13:08.894Z,98517.03
2022-09-28T04:15:56.102Z,98518.88
2022-09-28T04:18:42.549Z,98516.13
2022-09-28T04:21:29.448Z,98518.88
2022-09-28T04:24:16.191Z,98522.63
2022-09-28T04:27:21.375Z,98512.13
2022-09-28T04:30:08.205Z,98509.81
2022-09-28T04:32:54.852Z,98513.94
2022-09-28T04:35:40.592Z,98511.75
2022-09-28T04:38:48.463Z,98514.94
2022-09-28T04:41:33.060Z,98524.66
2022-09-28T04:44:19.794Z,98524.53
2022-09-28T04:47:05.571Z,98534.12
2022-09-28T04:49:53.122Z,98517.41
2022-09-28T04:52:39.061Z,98518.38
2022-09-28T04:55:25.858Z,98513.38
2022-09-28T04:58:12.965Z,98512.34
2022-09-28T05:01:00.398Z,98509.34
2022-09-28T05:03:47.544Z,98513.38
2022-09-28T05:06:33.846Z,98516.59
2022-09-28T05:09:20.332Z,98526.41
2022-09-28T05:12:06.557Z,98526.88
2022-09-28T05:14:52.564Z,98532.56
2022-09-28T05:17:38.953Z,98534.19
2022-09-28T05:20:25.000Z,98531.97
2022-09-28T05:23:12.375Z,98530.50
2022-09-28T05:26:00.585Z,98541.72
2022-09-28T05:28:47.184Z,98536.22
2022-09-28T05:31:33.521Z,98540.47
2022-09-28T05:34:21.464Z,98534.31
2022-09-28T05:37:07.143Z,98541.84
2022-09-28T05:39:52.958Z,98543.09
2022-09-28T05:42:38.643Z,98535.09
2022-09-28T05:45:24.782Z,98540.56
2022-09-28T05:48:10.969Z,98535.34
2022-09-28T05:50:58.709Z,98535.81
2022-09-28T05:53:45.543Z,98532.78
2022-09-28T05:56:32.055Z,98530.56
2022-09-28T05:59:18.310Z,98528.66
2022-09-28T06:02:04.986Z,98526.59
2022-09-28T06:04:51.373Z,98534.81
2022-09-28T06:07:37.615Z,98528.84
2022-09-28T06:10:24.206Z,98541.25
2022-09-28T06:13:10.510Z,98542.84
2022-09-28T06:15:57.735Z,98543.63
2022-09-28T06:18:45.136Z,98536.13
2022-09-28T06:21:32.128Z,98535.03
2022-09-28T06:24:17.985Z,98528.34
2022-09-28T06:27:04.193Z,98529.94
2022-09-28T06:29:50.115Z,98542.53
2022-09-28T06:32:36.501Z,98537.25
2022-09-28T06:35:22.900Z,98538.31
2022-09-28T06:38:10.623Z,98549.19
2022-09-28T06:40:59.771Z,98543.25
2022-09-28T06:43:46.468Z,98547.44
2022-09-28T06:46:35.690Z,98543.41
2022-09-28T06:49:27.834Z,98544.41
2022-09-28T06:52:14.445Z,98552.37
2022-09-28T06:55:02.032Z,98553.97
2022-09-28T06:57:48.111Z,98554.53
2022-09-28T07:00:35.641Z,98546.06
2022-09-28T07:03:22.138Z,98547.09
2022-09-28T07:06:09.545Z,98544.47
2022-09-28T07:09:11.489Z,98538.88
2022-09-28T07:12:04.944Z,98550.75
2022-09-28T07:14:56.245Z,98548.47
2022-09-28T07:17:55.050Z,98548.47
2022-09-28T07:20:53.652Z,98537.81
2022-09-28T07:23:51.696Z,98540.09
2022-09-28T07:26:41.359Z,98550.09
2022-09-28T07:29:28.347Z,98539.47
2022-09-28T07:32:14.124Z,98539.22
2022-09-28T07:35:01.652Z,98537.31
2022-09-28T07:37:47.506Z,98529.22
2022-09-28T07:40:53.165Z,98533.22
2022-09-28T07:43:40.181Z,98526.97
2022-09-28T07:46:26.541Z,98532.78
2022-09-28T07:49:15.647Z,98539.44
2022-09-28T07:52:04.379Z,98536.22
2022-09-28T07:54:52.200Z,98542.31
2022-09-28T07:57:40.044Z,98541.34
2022-09-28T08:00:34.156Z,98548.31
2022-09-28T08:03:22.461Z,98554.53
2022-09-28T08:06:11.192Z,98552.72
2022-09-28T08:08:59.956Z,98549.16
2022-09-28T08:11:46.585Z,98547.25
2022-09-28T08:14:34.400Z,98539.28
2022-09-28T08:17:20.661Z,98528.41
2022-09-28T08:20:25.774Z,98524.47
2022-09-28T08:23:11.979Z,98516.75
2022-09-28T08:25:59.280Z,98508.19
2022-09-28T08:28:46.761Z,98507.56
2022-09-28T08:31:36.979Z,98510.06
2022-09-28T08:34:23.851Z,98510.22
2022-09-28T08:37:12.596Z,98515.84
2022-09-28T08:40:00.221Z,98532.88
2022-09-28T08:42:46.501Z,98541.34
2022-09-28T08:45:36.381Z,98529.97
2022-09-28T08:48:52.221Z,98528.78
2022-09-28T08:51:52.485Z,98546.59
2022-09-28T08:54:45.044Z,98544.50
2022-09-28T08:57:36.180Z,98535.19
2022-09-28T09:00:42.708Z,98529.31
2022-09-28T09:03:35.875Z,98523.00
2022-09-28T09:06:34.441Z,98517.97
2022-09-28T09:09:30.733Z,98519.09
2022-09-28T09:12:33.062Z,98518.78
2022-09-28T09:15:18.797Z,98510.94
2022-09-28T09:18:23.116Z,98512.09
2022-09-28T09:21:13.621Z,98512.88
2022-09-28T09:24:27.442Z,98497.69
2022-09-28T09:27:22.771Z,98511.22
2022-09-28T09:30:10.858Z,98504.16
2022-09-28T09:32:56.931Z,98514.78
2022-09-28T09:35:43.912Z,98501.94
2022-09-28T09:38:50.650Z,98508.94
2022-09-28T09:41:42.008Z,98502.13
2022-09-28T09:44:46.177Z,98511.00
2022-09-28T09:47:36.018Z,98508.91
2022-09-28T09:50:30.799Z,98506.59
2022-09-28T09:53:20.925Z,98509.16
2022-09-28T09:56:09.928Z,98504.00
2022-09-28T09:58:57.464Z,98501.19
2022-09-28T10:01:44.183Z,98509.63
2022-09-28T10:04:32.388Z,98510.88
2022-09-28T10:07:26.318Z,98510.53
2022-09-28T10:10:14.303Z,98513.69
2022-09-28T10:13:00.761Z,98515.75
2022-09-28T10:15:49.066Z,98514.09
2022-09-28T10:18:36.934Z,98515.13
2022-09-28T10:21:26.483Z,98522.63
2022-09-28T10:24:33.195Z,98519.59
2022-09-28T10:27:24.186Z,98520.97
2022-09-28T10:30:09.904Z,98511.38
2022-09-28T10:32:59.485Z,98511.00
2022-09-28T10:35:47.864Z,98511.38
2022-09-28T10:38:34.356Z,98507.81
2022-09-28T10:41:22.730Z,98513.34
2022-09-28T10:44:12.952Z,98512.03
2022-09-28T10:47:02.502Z,98505.00
2022-09-28T10:49:49.766Z,98498.78
2022-09-28T10:52:36.803Z,98499.13
2022-09-28T10:55:32.189Z,98507.03
2022-09-28T10:58:24.217Z,98506.94
2022-09-28T11:01:17.562Z,98506.97
2022-09-28T11:04:04.922Z,98496.50
2022-09-28T11:06:51.440Z,98489.50
2022-09-28T11:09:39.342Z,98493.16
2022-09-28T11:12:27.315Z,98482.41
2022-09-28T11:15:17.523Z,98475.44
2022-09-28T11:18:22.662Z,98479.75
2022-09-28T11:21:12.125Z,98470.31
2022-09-28T11:24:01.436Z,98470.69
2022-09-28T11:26:48.417Z,98473.91
2022-09-28T11:29:35.976Z,98461.91
2022-09-28T11:32:24.709Z,98465.72
2022-09-28T11:35:39.097Z,98466.28
2022-09-28T11:38:33.632Z,98465.97
2022-09-28T11:41:28.442Z,98469.94
2022-09-28T11:44:23.902Z,98459.22
2022-09-28T11:47:24.923Z,98465.16
2022-09-28T11:50:22.998Z,98471.84
2022-09-28T11:53:10.597Z,98456.78
2022-09-28T11:56:15.578Z,98454.25
2022-09-28T11:59:20.430Z,98456.00
2022-09-28T12:02:16.793Z,98441.72
2022-09-28T12:05:06.280Z,98441.75
2022-09-28T12:07:56.450Z,98444.16
2022-09-28T12:11:01.803Z,98432.28
2022-09-28T12:13:51.501Z,98433.84
2022-09-28T12:20:10.873Z,98428.69
2022-09-28T12:22:59.955Z,98429.88
2022-09-28T12:25:47.257Z,98419.16
2022-09-28T12:28:33.355Z,98424.28
2022-09-28T12:31:39.537Z,98415.59
2022-09-28T12:34:26.037Z,98413.94
2022-09-28T12:37:23.514Z,98403.72
2022-09-28T12:40:09.745Z,98408.44
2022-09-28T12:43:14.623Z,98399.50
2022-09-28T12:46:11.886Z,98399.47
2022-09-28T12:49:47.320Z,98399.06
2022-09-28T12:52:09.017Z,98398.56
2022-09-28T12:54:59.016Z,98398.44
2022-09-28T12:57:57.652Z,98398.53
2022-09-28T13:00:46.898Z,98390.38
2022-09-28T13:03:36.760Z,98404.62
2022-09-28T13:06:28.772Z,98393.94
2022-09-28T13:09:16.745Z,98386.22
2022-09-28T13:12:05.804Z,98393.53
2022-09-28T13:15:11.202Z,98379.28
2022-09-28T13:18:16.233Z,98380.88
2022-09-28T13:21:08.317Z,98391.81
2022-09-28T13:24:00.766Z,98397.38
2022-09-28T13:26:50.645Z,98402.09
2022-09-28T13:29:36.849Z,98399.72
2022-09-28T13:32:24.295Z,98393.28
2022-09-28T13:35:19.554Z,98394.94
2022-09-28T13:38:18.142Z,98389.78
2022-09-28T13:41:04.144Z,98388.91
2022-09-28T13:43:50.451Z,98390.19
2022-09-28T13:46:56.268Z,98391.03
2022-09-28T13:49:42.252Z,98397.38
2022-09-28T13:52:37.377Z,98386.25
2022-09-28T13:55:29.893Z,98394.94
2022-09-28T13:58:24.719Z,98390.22
2022-09-28T14:01:11.726Z,98383.09
2022-09-28T14:04:19.073Z,98385.41
2022-09-28T14:07:16.850Z,98397.75
2022-09-28T14:10:18.699Z,98392.59
2022-09-28T14:13:06.659Z,98395.34
2022-09-28T14:15:55.334Z,98390.97
2022-09-28T14:18:41.304Z,98394.97
2022-09-28T14:21:46.222Z,98380.38
2022-09-28T14:24:51.186Z,98389.72
2022-09-28T14:27:38.029Z,98384.63
2022-09-28T14:30:42.633Z,98378.19
2022-09-28T14:33:29.834Z,98378.69
2022-09-28T14:36:57.481Z,98372.75
2022-09-28T14:40:05.740Z,98368.03
2022-09-28T14:43:20.687Z,98373.56
2022-09-28T14:46:14.581Z,98375.94
2022-09-28T14:49:04.341Z,98368.78
2022-09-28T14:51:54.187Z,98373.53
2022-09-28T14:54:50.000Z,98372.75
2022-09-28T14:57:36.417Z,98364.06
2022-09-28T15:00:23.080Z,98360.34
2022-09-28T15:03:12.247Z,98361.66
2022-09-28T15:05:59.430Z,98357.59
2022-09-28T15:08:45.760Z,98348.94
2022-09-28T15:11:31.470Z,98353.31
2022-09-28T15:14:17.973Z,98354.87
2022-09-28T15:17:10.807Z,98350.00
2022-09-28T15:20:26.586Z,98339.31
2022-09-28T15:23:28.213Z,98341.75
2022-09-28T15:26:27.604Z,98339.75
2022-09-28T15:29:20.277Z,98341.25
2022-09-28T15:32:06.367Z,98341.25
2022-09-28T15:34:52.750Z,98331.66
2022-09-28T15:37:40.717Z,98331.34
2022-09-28T15:40:29.571Z,98342.16
2022-09-28T15:43:24.785Z,98346.50
2022-09-28T15:46:13.550Z,98348.34
2022-09-28T15:49:01.559Z,98354.31
2022-09-28T15:51:48.739Z,98352.94
2022-09-28T15:54:38.888Z,98349.91
2022-09-28T15:57:36.850Z,98349.94
2022-09-28T16:00:23.416Z,98359.84
2022-09-28T16:03:09.551Z,98353.06
2022-09-28T16:05:58.312Z,98350.69
2022-09-28T16:08:49.001Z,98350.34
2022-09-28T16:11:38.713Z,98342.94
2022-09-28T16:14:24.691Z,98339.63
2022-09-28T16:17:14.161Z,98340.88
2022-09-28T16:20:19.000Z,98336.84
2022-09-28T16:23:17.051Z,98345.09
2022-09-28T16:26:08.515Z,98345.56
2022-09-28T16:28:54.147Z,98338.97
2022-09-28T16:31:43.843Z,98345.75
2022-09-28T16:34:30.771Z,98346.50
2022-09-28T16:37:31.476Z,98358.69
2022-09-28T16:40:17.641Z,98360.34
2022-09-28T16:43:04.508Z,98356.19
2022-09-28T16:45:50.314Z,98355.81
2022-09-28T16:48:37.526Z,98353.59
2022-09-28T16:51:23.588Z,98359.28
2022-09-28T16:54:38.559Z,98358.09
2022-09-28T16:57:24.366Z,98357.03
2022-09-28T17:00:23.969Z,98361.41
2022-09-28T17:03:13.629Z,98372.78
2022-09-28T17:05:59.813Z,98360.75
2022-09-28T17:08:45.627Z,98360.97
2022-09-28T17:11:31.769Z,98362.00
2022-09-28T17:14:18.643Z,98364.63
2022-09-28T17:17:09.845Z,98357.75
2022-09-28T17:19:57.751Z,98368.22
2022-09-28T17:22:44.099Z,98367.22
2022-09-28T17:25:30.164Z,98360.69
2022-09-28T17:28:20.753Z,98360.31
2022-09-28T17:31:06.748Z,98365.66
2022-09-28T17:33:53.034Z,98370.94
2022-09-28T17:36:39.201Z,98370.28
2022-09-28T17:39:25.590Z,98371.63
2022-09-28T17:42:11.509Z,98366.19
2022-09-28T17:44:58.043Z,98372.81
2022-09-28T17:47:44.224Z,98373.44
2022-09-28T17:50:32.486Z,98382.66
2022-09-28T17:53:18.350Z,98376.06
2022-09-28T17:56:04.822Z,98375.81
2022-09-28T17:58:50.693Z,98382.03
2022-09-28T18:01:38.200Z,98384.31
2022-09-28T18:04:50.211Z,98388.19
2022-09-28T18:07:31.765Z,98388.50
2022-09-28T18:10:19.652Z,98390.47
2022-09-28T18:13:05.787Z,98386.00
2022-09-28T18:15:52.029Z,98396.38
2022-09-28T18:18:39.846Z,98395.63
2022-09-28T18:21:26.081Z,98390.09
2022-09-28T18:24:11.966Z,98395.94
2022-09-28T18:26:58.387Z,98393.44
2022-09-28T18:29:45.224Z,98404.31
2022-09-28T18:32:33.486Z,98404.31
2022-09-28T18:35:23.027Z,98402.75
2022-09-28T18:38:10.456Z,98402.00
2022-09-28T18:40:56.607Z,98403.91
2022-09-28T18:43:48.889Z,98402.16
2022-09-28T18:46:36.782Z,98401.16
2022-09-28T18:49:23.117Z,98396.78
2022-09-28T18:52:10.117Z,98403.38
2022-09-28T18:54:56.639Z,98407.16
2022-09-28T18:57:44.143Z,98412.56
2022-09-28T19:00:30.471Z,98404.84
2022-09-28T19:03:16.395Z,98406.06
2022-09-28T19:06:02.547Z,98405.69
2022-09-28T19:08:52.245Z,98403.81
2022-09-28T19:11:38.279Z,98411.53
2022-09-28T19:14:26.509Z,98399.75
2022-09-28T19:17:12.638Z,98406.97
2022-09-28T19:19:58.853Z,98407.41
2022-09-28T19:22:45.349Z,98413.06
2022-09-28T19:25:31.443Z,98411.44
2022-09-28T19:28:17.196Z,98408.22
2022-09-28T19:31:03.801Z,98412.41
2022-09-28T19:33:50.455Z,98409.56
2022-09-28T19:36:36.322Z,98409.72
2022-09-28T19:39:22.733Z,98406.84
2022-09-28T19:42:08.593Z,98406.53
2022-09-28T19:44:54.856Z,98416.72
2022-09-28T19:47:40.837Z,98403.72
2022-09-28T19:50:27.224Z,98401.50
2022-09-28T19:53:13.347Z,98399.44
2022-09-28T19:56:01.452Z,98403.03
2022-09-28T19:58:47.416Z,98393.53
2022-09-28T20:01:33.711Z,98391.50
2022-09-28T20:04:22.890Z,98395.59
2022-09-28T20:07:08.649Z,98384.06
2022-09-28T20:09:54.993Z,98388.09
2022-09-28T20:12:42.381Z,98388.97
2022-09-28T20:15:28.828Z,98391.81
2022-09-28T20:18:14.753Z,98379.47
2022-09-28T20:21:07.599Z,98388.69
2022-09-28T20:23:57.395Z,98386.56
2022-09-28T20:26:44.399Z,98380.66
2022-09-28T20:29:31.814Z,98388.25
2022-09-28T20:32:18.272Z,98382.91
2022-09-28T20:35:04.313Z,98383.06
2022-09-28T20:37:51.052Z,98376.84
2022-09-28T20:40:37.383Z,98367.38
2022-09-28T20:43:24.207Z,98365.34
2022-09-28T20:46:10.642Z,98366.62
2022-09-28T20:48:57.978Z,98363.25
2022-09-28T20:51:43.937Z,98360.94
2022-09-28T20:54:31.056Z,98363.34
2022-09-28T20:57:21.112Z,98362.81
2022-09-28T21:00:07.760Z,98362.03
2022-09-28T21:02:53.713Z,98360.81
2022-09-28T21:05:40.114Z,98357.25
2022-09-28T21:08:26.301Z,98372.97
2022-09-28T21:11:13.024Z,98360.09
2022-09-28T21:13:59.677Z,98358.22
2022-09-28T21:16:45.844Z,98356.28
2022-09-28T21:19:31.931Z,98356.69
2022-09-28T21:22:18.110Z,98345.63
2022-09-28T21:25:04.270Z,98353.28
2022-09-28T21:27:50.628Z,98352.34
2022-09-28T21:30:36.730Z,98353.09
2022-09-28T21:33:23.253Z,98353.56
2022-09-28T21:36:08.729Z,98357.97
2022-09-28T21:38:55.557Z,98362.03
2022-09-28T21:41:41.688Z,98357.41
2022-09-28T21:44:27.676Z,98353.72
2022-09-28T21:47:13.701Z,98350.91
2022-09-28T21:50:00.017Z,98341.75
2022-09-28T21:52:45.989Z,98350.31
2022-09-28T21:55:32.482Z,98342.94
2022-09-28T21:58:18.527Z,98350.50
2022-09-28T22:01:08.217Z,98354.41
2022-09-28T22:03:55.412Z,98352.13
2022-09-28T22:06:41.361Z,98343.81
2022-09-28T22:09:27.922Z,98353.00
2022-09-28T22:12:14.074Z,98351.16
2022-09-28T22:15:00.378Z,98352.91
2022-09-28T22:17:46.458Z,98351.56
2022-09-28T22:20:32.700Z,98343.69
2022-09-28T22:23:18.508Z,98341.75
2022-09-28T22:26:07.051Z,98340.22
2022-09-28T22:28:56.651Z,98338.72
2022-09-28T22:31:42.767Z,98337.66
2022-09-28T22:34:31.609Z,98337.97
2022-09-28T22:37:17.880Z,98336.66
2022-09-28T22:40:03.944Z,98338.16
2022-09-28T22:42:50.174Z,98340.97
2022-09-28T22:45:35.785Z,98336.25
2022-09-28T22:48:22.183Z,98339.44
2022-09-28T22:51:08.333Z,98342.38
2022-09-28T22:53:54.516Z,98343.59
2022-09-28T22:56:40.351Z,98340.09
2022-09-28T22:59:26.236Z,98343.09
2022-09-28T23:02:12.164Z,98345.28
2022-09-28T23:04:57.979Z,98337.84
2022-09-28T23:07:44.025Z,98338.00
2022-09-28T23:10:30.385Z,98341.84
2022-09-28T23:13:16.362Z,98328.78
2022-09-28T23:16:03.921Z,98326.72
2022-09-28T23:18:50.021Z,98336.09
2022-09-28T23:21:37.155Z,98333.41
2022-09-28T23:24:23.127Z,98323.66
2022-09-28T23:27:09.524Z,98333.78
2022-09-28T23:29:55.459Z,98324.03
2022-09-28T23:32:41.417Z,98336.94
2022-09-28T23:35:26.893Z,98328.44
2022-09-28T23:38:17.954Z,98330.66
2022-09-28T23:41:04.185Z,98335.12
2022-09-28T23:43:50.390Z,98335.22
2022-09-28T23:46:36.261Z,98345.47
2022-09-28T23:49:22.893Z,98345.97
2022-09-28T23:52:08.957Z,98349.13
2022-09-28T23:54:55.299Z,98345.97
2022-09-28T23:57:42.945Z,98343.62
